Time;durP1;ratioP1;P1;durP2;ratioP2;P2;SDS_P1;SDS_P2;PMS_P1;PMS_P2;Temp;Humidity;BMP_temperature;BMP_pressure;BME280_temperature;BME280_humidity;BME280_pressure;Samples;Min_cycle;Max_cycle;Signal;HPM_P1;HPM_P2
2022/04/27 19:52:56;;;;;;;7.30;5.25;;;;;;;;;;5079472;27;20431;-76
2022/04/27 19:55:23;;;;;;;19.88;6.80;;;;;;;;;;5070332;28;20051;-76
2022/04/27 19:57:52;;;;;;;11.70;6.43;;;;;;;;;;5068013;28;20068;-76
2022/04/27 20:00:20;;;;;;;10.88;6.85;;;;;;;;;;5064868;28;20507;-77
2022/04/27 20:02:47;;;;;;;10.82;6.65;;;;;;;;;;5070872;28;20680;-77
2022/04/27 20:05:15;;;;;;;11.90;6.47;;;;;;;;;;5070207;28;20045;-77
2022/04/27 20:07:44;;;;;;;10.32;6.85;;;;;;;;;;5069011;28;20076;-78
2022/04/27 20:10:12;;;;;;;14.50;7.38;;;;;;;;;;5066341;28;20064;-78
2022/04/27 20:12:39;;;;;;;13.88;7.80;;;;;;;;;;5068785;28;20690;-77
2022/04/27 20:15:07;;;;;;;11.48;7.13;;;;;;;;;;5060929;28;20053;-79
2022/04/27 20:17:33;;;;;;;11.50;8.00;;;;;;;;;;5062546;28;20072;-77
2022/04/27 20:20:00;;;;;;;10.68;6.93;;;;;;;;;;5070677;28;20047;-78
2022/04/27 20:22:27;;;;;;;9.50;6.28;;;;;;;;;;5073490;28;20060;-76
2022/04/27 20:24:55;;;;;;;12.35;6.97;;;;;;;;;;5071378;28;20044;-79
2022/04/27 20:27:22;;;;;;;9.77;5.32;;;;;;;;;;5071117;28;20107;-78
2022/04/27 20:29:49;;;;;;;8.68;5.25;;;;;;;;;;5071290;28;20036;-77
2022/04/27 20:32:16;;;;;;;6.63;4.85;;;;;;;;;;5071690;28;20469;-77
2022/04/27 20:34:44;;;;;;;6.22;4.80;;;;;;;;;;5071066;28;20036;-77
2022/04/27 20:37:12;;;;;;;8.65;5.13;;;;;;;;;;5074290;28;20056;-78
2022/04/27 20:39:39;;;;;;;7.22;4.75;;;;;;;;;;5073068;28;20131;-77
2022/04/27 20:42:07;;;;;;;7.32;3.88;;;;;;;;;;5070401;28;20132;-77
2022/04/27 20:44:35;;;;;;;9.10;4.85;;;;;;;;;;5066144;28;20571;-77
2022/04/27 20:47:02;;;;;;;6.40;4.10;;;;;;;;;;5067467;28;20032;-76
2022/04/27 20:49:28;;;;;;;6.43;4.65;;;;;;;;;;5067364;28;20149;-76
2022/04/27 20:52:12;;;;;;;7.35;5.43;;;;;;;;;;5068181;28;20098;-77
2022/04/27 20:54:42;;;;;;;10.18;5.68;;;;;;;;;;5067254;28;20624;-77
2022/04/27 20:57:11;;;;;;;9.45;6.38;;;;;;;;;;5070474;28;20826;-77
2022/04/27 20:59:37;;;;;;;11.85;7.85;;;;;;;;;;5069178;28;20459;-77
2022/04/27 21:02:04;;;;;;;12.77;7.90;;;;;;;;;;5067502;28;20048;-76
2022/04/27 21:04:31;;;;;;;9.27;5.82;;;;;;;;;;5053131;28;20077;-78
2022/04/27 21:06:58;;;;;;;8.75;5.60;;;;;;;;;;5054372;28;20821;-77
2022/04/27 21:09:25;;;;;;;8.77;5.85;;;;;;;;;;5056831;28;20053;-77
2022/04/27 21:11:51;;;;;;;9.95;5.35;;;;;;;;;;5046861;28;20120;-77
2022/04/27 21:14:20;;;;;;;7.53;5.05;;;;;;;;;;5042002;28;20080;-77
2022/04/27 21:16:47;;;;;;;7.53;5.13;;;;;;;;;;5044358;28;20067;-77
2022/04/27 21:19:14;;;;;;;8.02;5.65;;;;;;;;;;5050129;28;20045;-77
2022/04/27 21:21:41;;;;;;;11.63;6.05;;;;;;;;;;5047694;28;20348;-79
2022/04/27 21:24:08;;;;;;;10.05;6.68;;;;;;;;;;5046653;28;20041;-77
2022/04/27 21:26:34;;;;;;;9.07;5.63;;;;;;;;;;5048668;28;20073;-77
2022/04/27 21:29:01;;;;;;;8.85;5.97;;;;;;;;;;5046103;28;20072;-80
2022/04/27 21:31:30;;;;;;;7.88;5.30;;;;;;;;;;5036960;28;20046;-77
2022/04/27 21:33:56;;;;;;;9.82;6.38;;;;;;;;;;5051045;28;20137;-79
2022/04/27 21:36:23;;;;;;;8.07;5.65;;;;;;;;;;5051264;28;20516;-74
2022/04/27 21:38:50;;;;;;;10.77;6.93;;;;;;;;;;5054119;28;20765;-77
2022/04/27 21:41:16;;;;;;;10.18;6.13;;;;;;;;;;5056005;28;20109;-77
2022/04/27 21:43:43;;;;;;;13.50;6.72;;;;;;;;;;5049671;28;20131;-76
2022/04/27 21:46:10;;;;;;;8.18;5.05;;;;;;;;;;5054898;28;20052;-77
2022/04/27 21:48:38;;;;;;;9.43;6.07;;;;;;;;;;5057306;28;20059;-77
2022/04/27 21:51:05;;;;;;;10.65;6.35;;;;;;;;;;5049504;28;20114;-79
2022/04/27 21:53:32;;;;;;;12.25;6.45;;;;;;;;;;5058353;28;20040;-77
2022/04/27 21:56:00;;;;;;;12.63;6.95;;;;;;;;;;5051105;28;20037;-77
2022/04/27 21:58:26;;;;;;;9.93;6.32;;;;;;;;;;5053806;28;20049;-77
2022/04/27 22:01:08;;;;;;;11.02;6.60;;;;;;;;;;5052029;28;20036;-77
2022/04/27 22:06:25;;;;;;;12.25;6.82;;;;;;;;;;5054693;28;20122;-77
2022/04/27 22:08:52;;;;;;;35.17;16.25;;;;;;;;;;5051981;28;20048;-76
2022/04/27 22:11:20;;;;;;;26.73;13.05;;;;;;;;;;5054305;28;20882;-74
2022/04/27 22:13:46;;;;;;;21.23;11.57;;;;;;;;;;5056095;28;20044;-77
2022/04/27 22:16:13;;;;;;;18.33;9.82;;;;;;;;;;5049295;28;20511;-77
2022/04/27 22:18:42;;;;;;;14.27;8.82;;;;;;;;;;5051294;28;20102;-77
2022/04/27 22:21:09;;;;;;;13.20;6.88;;;;;;;;;;5046317;28;20092;-78
2022/04/27 22:23:36;;;;;;;11.13;6.60;;;;;;;;;;5049856;28;20092;-77
2022/04/27 22:26:02;;;;;;;12.73;6.20;;;;;;;;;;5049833;28;20068;-78
2022/04/27 22:28:29;;;;;;;13.55;5.93;;;;;;;;;;5033392;28;20164;-77
2022/04/27 22:30:56;;;;;;;9.73;5.57;;;;;;;;;;5047054;28;20033;-76
2022/04/27 22:33:22;;;;;;;10.15;6.15;;;;;;;;;;5050029;28;20037;-75
2022/04/27 22:35:50;;;;;;;10.73;5.80;;;;;;;;;;5050250;28;20075;-77
2022/04/27 22:38:17;;;;;;;9.93;5.38;;;;;;;;;;5047129;28;20041;-77
2022/04/27 22:40:43;;;;;;;7.88;5.78;;;;;;;;;;5050613;28;20064;-77
2022/04/27 22:43:10;;;;;;;9.30;5.78;;;;;;;;;;5048561;28;20069;-75
2022/04/27 22:45:37;;;;;;;9.40;6.03;;;;;;;;;;5047229;28;20183;-75
2022/04/27 22:48:04;;;;;;;17.02;10.05;;;;;;;;;;5051379;28;20102;-76
2022/04/27 22:50:30;;;;;;;12.23;7.05;;;;;;;;;;5043032;28;21645;-77
2022/04/27 22:52:58;;;;;;;10.75;6.82;;;;;;;;;;5051419;28;20033;-77
2022/04/27 22:55:25;;;;;;;10.68;6.88;;;;;;;;;;5048153;28;20436;-79
2022/04/27 22:57:51;;;;;;;10.63;5.97;;;;;;;;;;5040265;28;20087;-78
2022/04/27 23:00:19;;;;;;;11.25;5.65;;;;;;;;;;5043305;28;20099;-78
2022/04/27 23:02:46;;;;;;;9.13;5.10;;;;;;;;;;5050164;28;20049;-75
2022/04/27 23:05:12;;;;;;;6.95;4.70;;;;;;;;;;5046102;28;20052;-78
2022/04/27 23:13:08;;;;;;;7.80;4.65;;;;;;;;;;5050518;28;20049;-77
2022/04/27 23:15:35;;;;;;;7.68;4.68;;;;;;;;;;5044315;28;20492;-78
2022/04/27 23:18:03;;;;;;;7.03;4.85;;;;;;;;;;5051720;28;20443;-77
2022/04/27 23:20:29;;;;;;;7.60;4.70;;;;;;;;;;5047534;28;20074;-78
2022/04/27 23:22:56;;;;;;;7.03;4.18;;;;;;;;;;5051819;28;20084;-75
2022/04/27 23:25:24;;;;;;;7.25;4.47;;;;;;;;;;5049082;28;20045;-77
2022/04/27 23:27:51;;;;;;;6.78;3.85;;;;;;;;;;5050303;28;20041;-77
2022/04/27 23:30:17;;;;;;;7.28;4.85;;;;;;;;;;5048375;28;20083;-77
2022/04/27 23:32:44;;;;;;;5.50;3.72;;;;;;;;;;5049055;28;20134;-77
2022/04/27 23:35:10;;;;;;;5.97;3.83;;;;;;;;;;5048944;28;20080;-77
2022/04/27 23:37:37;;;;;;;7.97;4.00;;;;;;;;;;5045646;28;20068;-77
2022/04/27 23:40:05;;;;;;;6.28;3.88;;;;;;;;;;5042293;28;20047;-79
2022/04/27 23:42:33;;;;;;;6.75;3.63;;;;;;;;;;5038513;28;20646;-77
2022/04/27 23:44:59;;;;;;;5.90;3.50;;;;;;;;;;5040521;28;20118;-77
2022/04/27 23:47:26;;;;;;;6.55;4.32;;;;;;;;;;5043497;28;20625;-77
2022/04/27 23:49:52;;;;;;;6.38;4.10;;;;;;;;;;5048273;28;20076;-77
2022/04/27 23:52:19;;;;;;;7.72;4.07;;;;;;;;;;5040566;28;20041;-77
2022/04/27 23:54:46;;;;;;;8.38;4.75;;;;;;;;;;5042524;28;20099;-77
2022/04/27 23:57:17;;;;;;;6.95;4.32;;;;;;;;;;5046972;28;20110;-78
2022/04/27 23:59:45;;;;;;;9.23;5.28;;;;;;;;;;5047612;28;20059;-78
